createdAt,value
2019-03-29T00:03:24.407Z,586.73
2019-03-29T00:13:35.839Z,398.83
2019-03-29T00:18:41.809Z,394.15
2019-03-29T00:23:49.018Z,290.15
2019-03-29T00:28:54.770Z,207.77
2019-03-29T00:34:00.865Z,136.25
2019-03-29T00:39:06.906Z,83.30
2019-03-29T00:44:12.689Z,60.50
2019-03-29T00:49:19.155Z,37.00
2019-03-29T00:54:27.998Z,25.63
2019-03-29T00:59:34.988Z,17.13
2019-03-29T01:04:40.688Z,15.27
2019-03-29T01:14:52.087Z,316.03
2019-03-29T01:19:57.888Z,541.37
2019-03-29T01:30:08.981Z,219.83
2019-03-29T01:35:14.750Z,86.73
2019-03-29T01:40:21.161Z,47.47
2019-03-29T01:45:26.697Z,28.50
2019-03-29T01:50:32.360Z,18.93
2019-03-29T01:55:38.033Z,15.90
2019-03-29T02:00:43.687Z,14.37
2019-03-29T02:05:49.352Z,12.97
2019-03-29T02:10:55.004Z,12.33
2019-03-29T02:16:00.686Z,12.73
2019-03-29T02:26:11.800Z,11.22
2019-03-29T02:31:32.824Z,13.87
2019-03-29T02:36:38.493Z,11.80
2019-03-29T02:41:46.710Z,12.07
2019-03-29T02:46:53.520Z,11.67
2019-03-29T02:51:59.783Z,11.83
2019-03-29T02:57:06.030Z,11.28
2019-03-29T03:02:11.618Z,11.77
2019-03-29T03:07:17.291Z,10.47
2019-03-29T03:12:22.845Z,11.17
2019-03-29T03:17:28.720Z,10.57
2019-03-29T03:22:34.480Z,11.07
2019-03-29T03:32:45.704Z,11.48
2019-03-29T03:37:51.371Z,10.63
2019-03-29T03:42:57.011Z,10.37
2019-03-29T03:48:02.803Z,10.47
2019-03-29T03:53:08.572Z,10.00
2019-03-29T03:58:15.024Z,9.80
2019-03-29T04:03:20.711Z,10.90
2019-03-29T04:08:26.688Z,11.00
2019-03-29T04:13:32.366Z,10.57
2019-03-29T04:18:37.981Z,10.55
2019-03-29T04:23:43.787Z,10.70
2019-03-29T04:29:03.314Z,10.93
2019-03-29T04:39:02.990Z,11.10
2019-03-29T04:44:08.710Z,11.23
2019-03-29T04:49:14.343Z,10.20
2019-03-29T04:54:20.034Z,10.90
2019-03-29T04:59:25.772Z,10.68
2019-03-29T05:04:31.640Z,10.20
2019-03-29T05:09:37.305Z,10.30
2019-03-29T05:14:42.864Z,10.33
2019-03-29T05:19:48.540Z,10.30
2019-03-29T05:24:54.294Z,10.07
2019-03-29T05:29:59.870Z,10.40
2019-03-29T05:35:05.627Z,10.90
2019-03-29T05:40:11.319Z,11.30
2019-03-29T05:45:17.027Z,10.80
2019-03-29T05:50:22.738Z,10.97
2019-03-29T05:55:32.865Z,10.97
2019-03-29T06:05:41.365Z,11.12
2019-03-29T06:10:49.217Z,11.10
2019-03-29T06:15:54.413Z,9.93
2019-03-29T06:26:05.801Z,9.47
2019-03-29T06:31:13.772Z,9.85
2019-03-29T06:36:19.479Z,9.77
2019-03-29T06:41:25.280Z,10.20
2019-03-29T06:46:30.875Z,10.00
2019-03-29T06:51:36.518Z,9.43
2019-03-29T07:01:49.388Z,9.18
2019-03-29T07:12:00.602Z,8.77
2019-03-29T07:17:06.276Z,9.07
2019-03-29T07:22:12.852Z,8.13
2019-03-29T07:27:18.736Z,8.07
2019-03-29T07:32:24.693Z,7.80
2019-03-29T07:37:30.457Z,7.58
2019-03-29T07:42:36.061Z,7.78
2019-03-29T07:47:41.682Z,6.90
2019-03-29T07:52:47.553Z,7.43
2019-03-29T07:57:53.311Z,6.80
2019-03-29T08:02:58.954Z,6.83
2019-03-29T08:18:15.568Z,5.57
2019-03-29T08:23:22.353Z,5.30
2019-03-29T08:28:27.995Z,10.32
2019-03-29T08:33:49.464Z,224.73
2019-03-29T08:38:55.618Z,353.73
2019-03-29T08:44:01.385Z,534.60
2019-03-29T08:49:08.049Z,339.10
2019-03-29T08:54:13.742Z,234.18
2019-03-29T09:04:24.915Z,85.23
2019-03-29T09:09:30.531Z,38.23
2019-03-29T09:19:41.655Z,15.40
2019-03-29T09:24:47.387Z,9.43
2019-03-29T09:29:53.036Z,7.10
2019-03-29T09:34:58.640Z,6.20
2019-03-29T09:40:03.971Z,6.33
2019-03-29T09:45:09.675Z,6.30
2019-03-29T09:50:15.433Z,5.60
2019-03-29T09:55:21.030Z,5.73
2019-03-29T10:00:26.684Z,5.45
2019-03-29T10:05:32.035Z,5.50
2019-03-29T10:10:37.672Z,5.50
2019-03-29T10:15:43.446Z,5.27
2019-03-29T10:20:49.095Z,5.40
2019-03-29T10:25:54.684Z,4.70
2019-03-29T10:31:00.346Z,4.90
2019-03-29T10:36:05.968Z,5.28
2019-03-29T10:41:11.660Z,5.53
2019-03-29T10:56:34.220Z,4.70
2019-03-29T11:11:47.287Z,5.73
2019-03-29T11:16:52.856Z,5.20
2019-03-29T11:21:58.701Z,5.37
2019-03-29T11:27:04.362Z,5.97
2019-03-29T11:32:09.858Z,5.93
2019-03-29T11:37:15.691Z,5.90
2019-03-29T11:42:21.359Z,5.67
2019-03-29T11:47:27.001Z,6.13
2019-03-29T11:52:33.953Z,5.87
2019-03-29T12:02:45.548Z,5.93
2019-03-29T12:07:52.018Z,5.80
2019-03-29T12:12:57.608Z,6.47
2019-03-29T12:18:03.288Z,5.83
2019-03-29T12:23:08.821Z,5.80
2019-03-29T12:28:14.601Z,5.83
2019-03-29T12:33:20.289Z,5.80
2019-03-29T12:38:25.996Z,5.42
2019-03-29T12:43:31.777Z,6.13
2019-03-29T12:48:37.443Z,6.30
2019-03-29T12:58:48.575Z,6.40
2019-03-29T13:03:54.283Z,6.60
2019-03-29T13:08:59.791Z,5.87
2019-03-29T13:14:10.477Z,6.10
2019-03-29T13:19:13.273Z,6.80
2019-03-29T13:24:18.847Z,6.78
2019-03-29T13:29:24.707Z,5.90
2019-03-29T13:34:30.479Z,5.20
2019-03-29T13:39:36.277Z,5.10
2019-03-29T13:44:41.964Z,5.00
2019-03-29T13:49:47.659Z,5.10
2019-03-29T13:54:53.357Z,4.80
2019-03-29T13:59:59.405Z,5.40
2019-03-29T14:10:11.005Z,5.30
2019-03-29T14:15:16.594Z,5.07
2019-03-29T14:20:23.699Z,5.70
2019-03-29T14:25:29.352Z,4.63
2019-03-29T14:30:35.003Z,5.83
2019-03-29T14:35:56.494Z,8.60
2019-03-29T14:41:05.709Z,25.53
2019-03-29T14:46:11.664Z,26.27
2019-03-29T14:51:18.561Z,17.60
2019-03-29T14:56:24.290Z,15.20
2019-03-29T15:01:29.971Z,31.48
2019-03-29T15:06:35.654Z,47.00
2019-03-29T15:11:41.329Z,21.80
2019-03-29T15:16:46.953Z,17.90
2019-03-29T15:21:52.716Z,50.87
2019-03-29T15:26:58.320Z,21.23
2019-03-29T15:32:03.875Z,16.13
2019-03-29T15:37:10.215Z,22.30
2019-03-29T15:42:16.594Z,14.30
2019-03-29T15:47:21.981Z,15.00
2019-03-29T15:52:27.598Z,13.90
2019-03-29T15:57:33.329Z,22.80
2019-03-29T16:02:38.961Z,43.20
2019-03-29T16:07:44.650Z,25.50
2019-03-29T16:12:48.398Z,18.70
2019-03-29T16:17:54.194Z,999.90
2019-03-29T16:22:59.895Z,96.27
2019-03-29T16:28:05.660Z,65.10
2019-03-29T16:33:11.330Z,21.63
2019-03-29T16:43:23.284Z,19.00
2019-03-29T16:53:34.704Z,574.73
2019-03-29T16:58:40.561Z,786.67
2019-03-29T17:03:46.432Z,901.23
2019-03-29T17:13:57.585Z,42.83
2019-03-29T17:19:03.557Z,35.27
2019-03-29T17:24:11.826Z,43.83
2019-03-29T17:29:18.677Z,127.20
2019-03-29T17:34:24.413Z,68.73
2019-03-29T17:39:30.145Z,137.20
2019-03-29T17:44:35.831Z,58.70
2019-03-29T17:49:42.440Z,39.70
2019-03-29T17:54:48.198Z,261.00
2019-03-29T17:59:53.953Z,63.07
2019-03-29T18:05:04.121Z,263.13
2019-03-29T18:10:10.086Z,758.87
2019-03-29T18:25:28.187Z,278.10
2019-03-29T20:40:35.297Z,402.25
2019-03-29T20:50:46.657Z,360.55
2019-03-29T20:55:52.692Z,344.17
2019-03-29T21:00:58.478Z,288.93
2019-03-29T21:06:05.260Z,311.57
2019-03-29T21:11:10.828Z,364.68
2019-03-29T21:16:17.089Z,428.20
2019-03-29T21:21:22.793Z,365.20
2019-03-29T21:26:28.846Z,259.27
2019-03-29T21:31:34.913Z,233.50
2019-03-29T21:36:40.692Z,177.47
2019-03-29T21:41:46.478Z,218.33
2019-03-29T21:46:54.571Z,255.40
2019-03-29T21:52:03.372Z,417.83
2019-03-29T21:57:13.230Z,481.87
2019-03-29T22:02:21.514Z,425.10
2019-03-29T22:07:31.551Z,422.70
2019-03-29T22:12:42.814Z,504.13
2019-03-29T22:17:48.190Z,336.60
2019-03-29T22:22:55.866Z,297.93
2019-03-29T22:28:02.775Z,297.17
2019-03-29T22:33:10.576Z,332.70
2019-03-29T22:38:17.297Z,372.37
2019-03-29T22:43:23.792Z,396.17
2019-03-29T22:58:40.691Z,211.87
2019-03-29T23:03:46.467Z,140.92
2019-03-29T23:08:52.231Z,197.65
2019-03-29T23:13:55.832Z,226.20
2019-03-29T23:19:06.883Z,300.77
2019-03-29T23:29:14.667Z,592.37
2019-03-29T23:34:20.481Z,364.40
2019-03-29T23:39:26.156Z,321.40
2019-03-29T23:44:31.872Z,214.80
2019-03-29T23:49:37.840Z,147.87
2019-03-29T23:54:43.809Z,111.43
2019-03-29T23:59:49.776Z,82.73
